createdAt,value
2022-11-15T00:00:08.270Z,33.46
2022-11-15T00:00:44.930Z,33.74
2022-11-15T00:01:21.843Z,33.68
2022-11-15T00:01:58.530Z,33.82
2022-11-15T00:02:36.231Z,33.66
2022-11-15T00:03:12.685Z,33.88
2022-11-15T00:03:49.720Z,33.94
2022-11-15T00:04:26.241Z,33.40
2022-11-15T00:05:04.275Z,33.55
2022-11-15T00:05:40.784Z,33.86
2022-11-15T00:06:17.437Z,33.67
2022-11-15T00:06:53.791Z,33.83
2022-11-15T00:07:54.082Z,34.08
2022-11-15T00:08:26.411Z,34.33
2022-11-15T00:09:03.388Z,34.05
2022-11-15T00:09:44.793Z,34.36
2022-11-15T00:10:23.356Z,34.41
2022-11-15T00:11:03.330Z,34.13
2022-11-15T00:11:40.637Z,34.29
2022-11-15T00:12:18.836Z,34.13
2022-11-15T00:12:55.944Z,34.22
2022-11-15T00:13:33.475Z,34.40
2022-11-15T00:14:11.277Z,34.54
2022-11-15T00:14:48.978Z,34.26
2022-11-15T00:15:30.878Z,34.71
2022-11-15T00:16:07.554Z,34.49
2022-11-15T00:16:45.665Z,34.27
2022-11-15T00:17:24.370Z,34.74
2022-11-15T00:18:02.354Z,34.61
2022-11-15T00:18:40.445Z,34.90
2022-11-15T00:19:18.874Z,34.75
2022-11-15T00:19:56.617Z,34.57
2022-11-15T00:20:34.664Z,34.84
2022-11-15T00:21:13.534Z,34.59
2022-11-15T00:21:51.234Z,34.50
2022-11-15T00:22:29.526Z,35.07
2022-11-15T00:23:06.940Z,34.71
2022-11-15T00:23:45.969Z,34.93
2022-11-15T00:24:24.097Z,34.89
2022-11-15T00:25:02.381Z,35.13
2022-11-15T00:25:40.529Z,35.09
2022-11-15T00:26:18.811Z,35.21
2022-11-15T00:26:57.856Z,34.97
2022-11-15T00:27:35.786Z,34.91
2022-11-15T00:28:13.716Z,35.25
2022-11-15T00:28:51.347Z,35.31
2022-11-15T00:29:29.262Z,35.04
2022-11-15T00:30:09.511Z,34.79
2022-11-15T00:30:47.433Z,35.02
2022-11-15T00:31:25.296Z,34.92
2022-11-15T00:32:01.982Z,35.08
2022-11-15T00:32:38.976Z,35.03
2022-11-15T00:33:17.409Z,35.30
2022-11-15T00:33:55.289Z,34.93
2022-11-15T00:34:32.211Z,35.17
2022-11-15T00:35:09.145Z,35.29
2022-11-15T00:35:46.809Z,35.31
2022-11-15T00:36:25.633Z,35.29
2022-11-15T00:37:02.823Z,35.39
2022-11-15T00:37:40.633Z,35.66
2022-11-15T00:38:18.492Z,35.54
2022-11-15T00:38:56.776Z,35.29
2022-11-15T00:39:43.377Z,35.22
2022-11-15T00:40:24.819Z,35.36
2022-11-15T00:41:06.428Z,35.40
2022-11-15T00:41:46.896Z,35.54
2022-11-15T00:42:24.839Z,35.57
2022-11-15T00:43:01.652Z,35.24
2022-11-15T00:43:39.597Z,35.22
2022-11-15T00:44:17.490Z,35.53
2022-11-15T00:44:55.847Z,35.14
2022-11-15T00:45:34.106Z,35.08
2022-11-15T00:46:11.902Z,35.62
2022-11-15T00:46:49.917Z,35.40
2022-11-15T00:47:27.800Z,35.23
2022-11-15T00:48:05.533Z,35.25
2022-11-15T00:48:44.134Z,35.44
2022-11-15T00:49:22.504Z,35.20
2022-11-15T00:50:00.802Z,35.25
2022-11-15T00:50:38.706Z,35.39
2022-11-15T00:51:17.213Z,34.98
2022-11-15T00:51:55.869Z,35.43
2022-11-15T00:52:33.742Z,35.01
2022-11-15T00:53:11.669Z,35.41
2022-11-15T00:53:50.328Z,35.59
2022-11-15T00:54:28.721Z,35.42
2022-11-15T00:55:05.961Z,35.45
2022-11-15T00:55:45.090Z,35.30
2022-11-15T00:56:23.199Z,35.08
2022-11-15T00:57:01.758Z,35.44
2022-11-15T00:57:40.977Z,35.08
2022-11-15T00:58:19.438Z,35.34
2022-11-15T00:58:57.342Z,35.19
2022-11-15T00:59:35.399Z,35.20
2022-11-15T01:00:12.429Z,35.38
2022-11-15T01:00:51.003Z,35.32
2022-11-15T01:01:29.323Z,35.45
2022-11-15T01:02:07.313Z,35.47
2022-11-15T01:02:44.873Z,35.00
2022-11-15T01:03:23.175Z,35.51
2022-11-15T01:04:01.680Z,35.67
2022-11-15T01:04:39.840Z,35.53
2022-11-15T01:05:17.596Z,35.32
2022-11-15T01:05:55.260Z,35.45
2022-11-15T01:06:33.453Z,35.32
2022-11-15T01:07:11.455Z,35.60
2022-11-15T01:07:49.959Z,35.64
2022-11-15T01:08:27.968Z,35.54
2022-11-15T01:09:05.947Z,35.37
2022-11-15T01:09:43.938Z,35.60
2022-11-15T01:10:20.916Z,35.52
2022-11-15T01:10:59.267Z,35.60
2022-11-15T01:11:37.485Z,35.70
2022-11-15T01:12:15.921Z,35.82
2022-11-15T01:12:52.478Z,35.98
2022-11-15T01:13:29.601Z,35.98
2022-11-15T01:14:06.781Z,35.98
2022-11-15T01:14:43.577Z,35.88
2022-11-15T01:15:20.520Z,35.77
2022-11-15T01:15:57.381Z,35.90
2022-11-15T01:16:34.812Z,35.76
2022-11-15T01:17:11.326Z,35.97
2022-11-15T01:17:49.335Z,35.55
2022-11-15T01:18:25.529Z,35.99
2022-11-15T01:19:02.217Z,35.62
2022-11-15T01:19:38.982Z,36.07
2022-11-15T01:20:16.021Z,36.09
2022-11-15T01:20:54.539Z,36.12
2022-11-15T01:21:32.206Z,35.87
2022-11-15T01:22:08.824Z,35.73
2022-11-15T01:22:45.645Z,35.88
2022-11-15T01:23:21.842Z,36.10
2022-11-15T01:23:58.429Z,36.10
2022-11-15T01:24:35.013Z,36.21
2022-11-15T01:25:12.229Z,35.94
2022-11-15T01:25:48.777Z,36.05
2022-11-15T01:26:25.510Z,35.96
2022-11-15T01:27:02.799Z,36.28
2022-11-15T01:27:39.467Z,36.22
2022-11-15T01:28:15.858Z,36.07
2022-11-15T01:28:54.078Z,36.21
2022-11-15T01:29:30.458Z,36.04
2022-11-15T01:30:07.809Z,36.10
2022-11-15T01:30:44.284Z,36.32
2022-11-15T01:31:21.054Z,36.44
2022-11-15T01:31:57.581Z,36.21
2022-11-15T01:32:34.287Z,36.31
2022-11-15T01:33:11.088Z,36.32
2022-11-15T01:33:47.352Z,36.24
2022-11-15T01:34:23.957Z,36.51
2022-11-15T01:35:00.439Z,36.15
2022-11-15T01:35:37.185Z,36.53
2022-11-15T01:36:18.584Z,36.42
2022-11-15T01:36:56.202Z,36.29
2022-11-15T01:37:34.213Z,36.47
2022-11-15T01:38:12.124Z,36.11
2022-11-15T01:38:50.547Z,36.43
2022-11-15T01:39:28.730Z,36.24
2022-11-15T01:40:06.719Z,36.21
2022-11-15T01:40:45.168Z,36.52
2022-11-15T01:41:21.950Z,36.61
2022-11-15T01:41:59.889Z,36.42
2022-11-15T01:42:39.541Z,36.60
2022-11-15T01:43:28.593Z,36.43
2022-11-15T01:44:22.759Z,36.60
2022-11-15T01:45:01.203Z,36.56
2022-11-15T01:45:41.762Z,36.48
2022-11-15T01:46:16.786Z,36.66
2022-11-15T01:46:54.965Z,36.72
2022-11-15T01:47:35.021Z,36.25
2022-11-15T01:48:13.599Z,36.11
2022-11-15T01:48:52.100Z,36.59
2022-11-15T01:49:30.040Z,36.36
2022-11-15T01:50:09.299Z,36.55
2022-11-15T01:50:45.708Z,36.66
2022-11-15T01:51:22.532Z,36.39
2022-11-15T01:51:59.629Z,36.39
2022-11-15T01:52:37.375Z,36.43
2022-11-15T01:53:16.878Z,36.84
2022-11-15T01:53:54.231Z,36.65
2022-11-15T01:54:32.244Z,36.61
2022-11-15T01:55:10.254Z,36.41
2022-11-15T01:55:48.204Z,36.79
2022-11-15T01:56:25.607Z,36.90
2022-11-15T01:57:11.152Z,36.69
2022-11-15T01:57:47.774Z,36.54
2022-11-15T01:58:24.930Z,36.83
2022-11-15T01:59:01.478Z,36.46
2022-11-15T01:59:38.162Z,36.68
2022-11-15T02:00:14.777Z,36.41
2022-11-15T02:00:51.526Z,36.68
2022-11-15T02:01:28.204Z,36.10
2022-11-15T02:02:06.650Z,36.60
2022-11-15T02:02:42.969Z,36.56
2022-11-15T02:03:19.654Z,36.67
2022-11-15T02:03:57.498Z,36.61
2022-11-15T02:04:36.274Z,36.69
2022-11-15T02:05:13.551Z,36.37
2022-11-15T02:05:50.191Z,36.55
2022-11-15T02:06:26.479Z,36.81
2022-11-15T02:07:03.543Z,36.78
2022-11-15T02:07:40.039Z,36.54
2022-11-15T02:08:16.696Z,36.58
2022-11-15T02:08:53.969Z,36.70
2022-11-15T02:09:31.113Z,36.58
2022-11-15T02:10:13.094Z,36.42
2022-11-15T02:10:50.777Z,36.87
2022-11-15T02:11:28.747Z,36.80
2022-11-15T02:12:07.819Z,36.61
2022-11-15T02:12:44.645Z,36.77
2022-11-15T02:13:22.692Z,36.46
2022-11-15T02:13:59.823Z,36.58
2022-11-15T02:14:37.490Z,36.72
2022-11-15T02:15:16.333Z,36.42
2022-11-15T02:16:03.386Z,36.66
2022-11-15T02:16:43.608Z,36.64
2022-11-15T02:17:18.717Z,36.68
2022-11-15T02:18:00.293Z,36.76
2022-11-15T02:18:37.444Z,36.71
2022-11-15T02:19:19.424Z,36.60
2022-11-15T02:20:06.549Z,36.45
2022-11-15T02:21:00.625Z,36.66
2022-11-15T02:21:39.599Z,36.78
2022-11-15T02:22:14.363Z,36.58
2022-11-15T02:22:55.301Z,36.93
2022-11-15T02:23:33.297Z,36.59
2022-11-15T02:24:11.418Z,36.78
2022-11-15T02:24:55.361Z,36.43
2022-11-15T02:25:35.770Z,36.70
2022-11-15T02:26:21.580Z,36.59
2022-11-15T02:27:23.318Z,36.80
2022-11-15T02:27:59.033Z,36.58
2022-11-15T02:28:36.841Z,36.55
2022-11-15T02:29:18.178Z,36.57
2022-11-15T02:30:07.170Z,36.88
2022-11-15T02:31:14.262Z,36.76
2022-11-15T02:32:00.628Z,36.59
2022-11-15T02:32:51.018Z,36.84
2022-11-15T02:34:01.010Z,36.76
2022-11-15T02:34:39.330Z,36.82
2022-11-15T02:35:35.043Z,36.77
2022-11-15T02:36:16.887Z,36.67
2022-11-15T02:36:53.533Z,36.60
2022-11-15T02:37:33.358Z,36.81
2022-11-15T02:38:16.002Z,36.79
2022-11-15T02:39:03.172Z,36.97
2022-11-15T02:39:40.244Z,36.56
2022-11-15T02:40:15.559Z,37.04
2022-11-15T02:41:01.585Z,36.68
2022-11-15T02:41:43.662Z,36.78
2022-11-15T02:42:27.540Z,36.58
2022-11-15T02:43:08.292Z,36.65
2022-11-15T02:43:43.661Z,36.99
2022-11-15T02:44:30.461Z,36.59
2022-11-15T02:45:07.859Z,36.42
2022-11-15T02:45:45.355Z,36.57
2022-11-15T02:46:24.249Z,36.93
2022-11-15T02:47:09.836Z,36.77
2022-11-15T02:47:46.378Z,36.90
2022-11-15T02:48:23.418Z,36.54
2022-11-15T02:49:01.791Z,36.70
2022-11-15T02:49:39.866Z,36.86
2022-11-15T02:50:16.449Z,36.50
2022-11-15T02:50:54.094Z,36.48
2022-11-15T02:51:32.211Z,36.62
2022-11-15T02:52:10.750Z,36.61
2022-11-15T02:52:50.461Z,36.73
2022-11-15T02:53:32.066Z,36.67
2022-11-15T02:54:09.328Z,36.51
2022-11-15T02:54:47.011Z,36.83
2022-11-15T02:55:32.742Z,36.90
2022-11-15T02:56:10.104Z,36.54
2022-11-15T02:56:47.390Z,36.56
2022-11-15T02:57:25.392Z,36.59
2022-11-15T02:58:09.340Z,36.55
2022-11-15T02:58:51.710Z,36.63
2022-11-15T02:59:32.547Z,36.73
2022-11-15T03:00:18.465Z,36.36
2022-11-15T03:00:58.056Z,36.77
2022-11-15T03:01:44.833Z,36.61
2022-11-15T03:02:26.289Z,36.68
2022-11-15T03:03:20.214Z,36.99
2022-11-15T03:03:58.735Z,36.77
2022-11-15T03:04:51.785Z,37.02
2022-11-15T03:05:26.981Z,36.94
2022-11-15T03:06:04.453Z,36.70
2022-11-15T03:06:46.707Z,36.70
2022-11-15T03:07:23.632Z,36.75
2022-11-15T03:08:04.648Z,36.93
2022-11-15T03:08:42.238Z,36.68
2022-11-15T03:09:36.110Z,36.67
2022-11-15T03:10:13.937Z,36.49
2022-11-15T03:10:52.309Z,36.78
2022-11-15T03:11:28.677Z,36.69
2022-11-15T03:12:19.699Z,36.82
2022-11-15T03:13:11.021Z,36.87
2022-11-15T03:14:02.783Z,36.79
2022-11-15T03:14:40.253Z,36.65
2022-11-15T03:15:22.763Z,36.77
2022-11-15T03:16:06.696Z,36.47
2022-11-15T03:16:48.863Z,36.35
2022-11-15T03:17:30.728Z,36.38
2022-11-15T03:18:29.198Z,36.49
2022-11-15T03:19:20.893Z,37.00
2022-11-15T03:19:57.428Z,36.91
2022-11-15T03:20:35.270Z,36.74
2022-11-15T03:21:11.905Z,37.00
2022-11-15T03:21:48.764Z,36.91
2022-11-15T03:22:26.187Z,36.89
2022-11-15T03:23:09.169Z,36.94
2022-11-15T03:23:45.469Z,37.15
2022-11-15T03:24:25.836Z,37.01
2022-11-15T03:25:02.542Z,37.12
2022-11-15T03:25:41.474Z,36.88
2022-11-15T03:26:19.551Z,36.94
2022-11-15T03:26:56.503Z,36.92
2022-11-15T03:27:34.436Z,36.90
2022-11-15T03:28:12.521Z,36.94
2022-11-15T03:28:53.628Z,37.25
2022-11-15T03:29:31.015Z,37.11
2022-11-15T03:30:07.689Z,37.05
2022-11-15T03:30:44.171Z,37.43
2022-11-15T03:31:20.635Z,37.32
2022-11-15T03:32:01.213Z,37.33
2022-11-15T03:32:41.467Z,37.13
2022-11-15T03:33:19.103Z,37.25
2022-11-15T03:33:57.158Z,37.20
2022-11-15T03:34:34.879Z,37.14
2022-11-15T03:35:10.434Z,37.05
2022-11-15T03:35:47.910Z,37.30
2022-11-15T03:36:24.583Z,37.42
2022-11-15T03:37:02.503Z,37.28
2022-11-15T03:37:40.916Z,37.24
2022-11-15T03:38:12.267Z,37.25
2022-11-15T03:38:43.695Z,37.42
2022-11-15T03:39:20.295Z,37.21
2022-11-15T03:39:51.958Z,37.03
2022-11-15T03:40:25.299Z,37.21
2022-11-15T03:40:59.215Z,37.16
2022-11-15T03:41:53.464Z,37.27
2022-11-15T03:42:36.789Z,37.39
2022-11-15T03:43:10.785Z,36.97
2022-11-15T03:43:47.450Z,37.55
2022-11-15T03:44:32.823Z,37.16
2022-11-15T03:45:10.149Z,37.45
2022-11-15T03:46:01.713Z,37.42
2022-11-15T03:46:33.687Z,37.40
2022-11-15T03:47:07.435Z,37.31
2022-11-15T03:47:42.785Z,37.47
2022-11-15T03:48:14.928Z,37.39
2022-11-15T03:48:53.179Z,37.33
2022-11-15T03:49:28.740Z,37.00
2022-11-15T03:50:04.357Z,37.26
2022-11-15T03:50:35.622Z,37.28
2022-11-15T03:51:06.987Z,37.60
2022-11-15T03:51:38.309Z,37.17
2022-11-15T03:52:09.575Z,37.17
2022-11-15T03:52:41.049Z,37.52
2022-11-15T03:53:12.512Z,37.47
2022-11-15T03:53:43.781Z,37.78
2022-11-15T03:54:15.038Z,37.58
2022-11-15T03:54:53.561Z,37.56
2022-11-15T03:55:24.868Z,37.55
2022-11-15T03:55:56.148Z,37.20
2022-11-15T03:56:27.468Z,37.20
2022-11-15T03:56:58.801Z,37.52
2022-11-15T03:57:30.065Z,37.64
2022-11-15T03:58:01.504Z,37.58
2022-11-15T03:58:32.773Z,37.64
2022-11-15T03:59:04.034Z,37.47
2022-11-15T03:59:35.330Z,37.51
2022-11-15T04:00:06.855Z,37.32
2022-11-15T04:00:38.129Z,37.23
2022-11-15T04:01:09.511Z,37.36
2022-11-15T04:01:40.920Z,37.43
2022-11-15T04:02:12.431Z,37.25
2022-11-15T04:02:43.729Z,37.58
2022-11-15T04:03:14.990Z,37.22
2022-11-15T04:03:46.284Z,37.66
2022-11-15T04:04:17.537Z,37.17
2022-11-15T04:04:48.824Z,37.30
2022-11-15T04:05:20.142Z,37.15
2022-11-15T04:05:51.422Z,37.30
2022-11-15T04:06:22.679Z,37.45
2022-11-15T04:06:54.030Z,37.28
2022-11-15T04:07:25.393Z,37.12
2022-11-15T04:07:56.982Z,37.26
2022-11-15T04:08:28.510Z,37.27
2022-11-15T04:08:59.771Z,37.32
2022-11-15T04:09:31.073Z,37.61
2022-11-15T04:10:02.449Z,37.59
2022-11-15T04:10:33.792Z,37.25
2022-11-15T04:11:05.086Z,37.62
2022-11-15T04:11:36.341Z,37.10
2022-11-15T04:12:07.595Z,37.24
2022-11-15T04:12:39.872Z,37.49
2022-11-15T04:13:11.179Z,37.25
2022-11-15T04:13:42.477Z,37.27
2022-11-15T04:14:13.765Z,37.30
2022-11-15T04:14:45.081Z,37.51
2022-11-15T04:15:17.270Z,37.38
2022-11-15T04:15:48.573Z,37.51
2022-11-15T04:16:19.876Z,37.20
2022-11-15T04:16:51.155Z,37.15
2022-11-15T04:17:22.441Z,37.39
2022-11-15T04:17:54.468Z,37.36
2022-11-15T04:18:25.712Z,37.36
2022-11-15T04:18:57.048Z,37.63
2022-11-15T04:19:28.333Z,37.67
2022-11-15T04:19:59.605Z,37.76
2022-11-15T04:20:31.161Z,37.56
2022-11-15T04:21:02.483Z,37.78
2022-11-15T04:21:33.735Z,37.57
2022-11-15T04:22:05.070Z,37.50
2022-11-15T04:22:36.335Z,37.44
2022-11-15T04:23:08.409Z,37.65
2022-11-15T04:23:39.712Z,37.83
2022-11-15T04:24:11.026Z,37.51
2022-11-15T04:24:42.372Z,37.80
2022-11-15T04:25:13.693Z,37.74
2022-11-15T04:25:44.966Z,37.50
2022-11-15T04:26:17.066Z,37.80
2022-11-15T04:26:48.363Z,37.53
2022-11-15T04:27:19.649Z,37.65
2022-11-15T04:27:50.930Z,37.48
2022-11-15T04:28:22.301Z,37.48
2022-11-15T04:28:53.602Z,37.61
2022-11-15T04:29:24.868Z,37.66
2022-11-15T04:29:56.179Z,37.37
2022-11-15T04:30:27.494Z,37.43
2022-11-15T04:30:58.774Z,37.51
2022-11-15T04:31:30.063Z,37.29
2022-11-15T04:32:04.863Z,37.37
2022-11-15T04:32:36.188Z,37.12
2022-11-15T04:33:07.448Z,37.33
2022-11-15T04:33:38.748Z,37.70
2022-11-15T04:34:10.021Z,37.72
2022-11-15T04:34:41.280Z,37.75
2022-11-15T04:35:12.579Z,37.45
2022-11-15T04:35:43.937Z,37.75
2022-11-15T04:36:15.254Z,37.66
2022-11-15T04:36:46.580Z,37.76
2022-11-15T04:37:17.866Z,37.34
2022-11-15T04:37:49.648Z,37.26
2022-11-15T04:38:21.044Z,37.37
2022-11-15T04:38:52.323Z,37.70
2022-11-15T04:39:23.583Z,37.70
2022-11-15T04:39:54.885Z,37.28
2022-11-15T04:40:26.179Z,37.61
2022-11-15T04:40:57.474Z,37.73
2022-11-15T04:41:28.789Z,37.20
2022-11-15T04:42:00.080Z,37.57
2022-11-15T04:42:31.353Z,37.37
2022-11-15T04:43:04.195Z,37.48
2022-11-15T04:43:35.767Z,37.39
2022-11-15T04:44:07.437Z,37.71
2022-11-15T04:44:38.782Z,37.79
2022-11-15T04:45:10.486Z,37.64
2022-11-15T04:45:41.788Z,37.52
2022-11-15T04:46:13.165Z,37.68
2022-11-15T04:46:44.461Z,37.63
2022-11-15T04:47:15.755Z,37.68
2022-11-15T04:47:47.232Z,37.67
2022-11-15T04:48:18.553Z,37.72
2022-11-15T04:48:52.067Z,37.32
2022-11-15T04:49:26.764Z,37.74
2022-11-15T04:49:58.022Z,37.59
2022-11-15T04:50:29.289Z,37.60
2022-11-15T04:51:00.592Z,37.77
2022-11-15T04:51:31.889Z,37.72
2022-11-15T04:52:03.188Z,37.58
2022-11-15T04:52:34.463Z,37.82
2022-11-15T04:53:05.710Z,37.92
2022-11-15T04:53:36.971Z,37.80
2022-11-15T04:54:08.235Z,38.06
2022-11-15T04:54:39.494Z,38.01
2022-11-15T04:55:11.001Z,37.71
2022-11-15T04:55:44.937Z,37.76
2022-11-15T04:56:16.247Z,37.84
2022-11-15T04:56:47.571Z,38.02
2022-11-15T04:57:18.880Z,37.76
2022-11-15T04:57:57.650Z,37.68
2022-11-15T04:58:28.902Z,37.44
2022-11-15T04:59:00.168Z,38.06
2022-11-15T04:59:31.431Z,37.65
2022-11-15T05:00:04.196Z,37.68
2022-11-15T05:00:35.984Z,37.88
2022-11-15T05:01:10.597Z,37.68
2022-11-15T05:01:44.894Z,37.65
2022-11-15T05:02:16.594Z,37.95
2022-11-15T05:02:47.877Z,37.79
2022-11-15T05:03:19.139Z,38.02
2022-11-15T05:03:50.449Z,37.72
2022-11-15T05:04:21.751Z,37.97
2022-11-15T05:04:53.017Z,38.03
2022-11-15T05:05:24.673Z,38.21
2022-11-15T05:05:55.909Z,37.76
2022-11-15T05:06:27.208Z,37.99
2022-11-15T05:06:58.669Z,37.77
2022-11-15T05:07:30.055Z,38.00
2022-11-15T05:08:01.344Z,38.04
2022-11-15T05:08:32.618Z,37.83
2022-11-15T05:09:03.907Z,38.16
2022-11-15T05:09:35.199Z,37.79
2022-11-15T05:10:06.560Z,38.09
2022-11-15T05:10:37.809Z,38.09
2022-11-15T05:11:09.105Z,37.93
2022-11-15T05:11:40.563Z,37.96
2022-11-15T05:12:11.886Z,38.06
2022-11-15T05:12:43.204Z,38.16
2022-11-15T05:13:14.439Z,37.96
2022-11-15T05:13:45.701Z,38.11
2022-11-15T05:14:17.002Z,38.13
2022-11-15T05:14:48.264Z,37.95
2022-11-15T05:15:19.564Z,38.14
2022-11-15T05:15:50.834Z,38.17
2022-11-15T05:16:22.143Z,38.02
2022-11-15T05:16:53.412Z,37.99
2022-11-15T05:17:24.692Z,38.17
2022-11-15T05:17:59.462Z,37.83
2022-11-15T05:18:30.741Z,37.96
2022-11-15T05:19:02.027Z,37.88
2022-11-15T05:19:33.334Z,37.90
2022-11-15T05:20:04.778Z,37.89
2022-11-15T05:20:36.030Z,38.02
2022-11-15T05:21:07.484Z,38.11
2022-11-15T05:21:38.748Z,37.94
2022-11-15T05:22:10.008Z,38.17
2022-11-15T05:22:41.321Z,37.91
2022-11-15T05:23:12.588Z,38.20
2022-11-15T05:23:43.849Z,38.12
2022-11-15T05:24:15.105Z,37.97
2022-11-15T05:24:46.369Z,37.84
2022-11-15T05:25:17.637Z,37.97
2022-11-15T05:25:48.906Z,37.93
2022-11-15T05:26:20.188Z,37.87
2022-11-15T05:26:51.486Z,37.76
2022-11-15T05:27:22.737Z,38.36
2022-11-15T05:27:54.003Z,37.98
2022-11-15T05:28:25.298Z,37.97
2022-11-15T05:28:56.972Z,38.14
2022-11-15T05:29:28.274Z,37.91
2022-11-15T05:29:59.565Z,38.18
2022-11-15T05:30:30.831Z,37.92
2022-11-15T05:31:02.510Z,37.88
2022-11-15T05:31:33.813Z,38.18
2022-11-15T05:32:06.014Z,38.06
2022-11-15T05:32:37.321Z,37.92
2022-11-15T05:33:08.602Z,37.95
2022-11-15T05:33:40.103Z,38.10
2022-11-15T05:34:11.349Z,38.04
2022-11-15T05:34:42.642Z,37.99
2022-11-15T05:35:16.063Z,37.80
2022-11-15T05:35:47.871Z,38.11
2022-11-15T05:36:29.765Z,37.91
2022-11-15T05:37:01.075Z,38.06
2022-11-15T05:37:32.330Z,38.00
2022-11-15T05:38:03.711Z,38.19
2022-11-15T05:38:35.001Z,38.27
2022-11-15T05:39:08.932Z,38.00
2022-11-15T05:39:40.538Z,38.25
2022-11-15T05:40:11.802Z,38.13
2022-11-15T05:40:43.111Z,37.89
2022-11-15T05:41:14.373Z,38.15
2022-11-15T05:41:47.233Z,38.37
2022-11-15T05:42:18.533Z,38.15
2022-11-15T05:42:49.790Z,38.45
2022-11-15T05:43:21.147Z,38.28
2022-11-15T05:43:52.448Z,38.23
2022-11-15T05:44:23.877Z,38.05
2022-11-15T05:44:55.169Z,38.11
2022-11-15T05:45:27.139Z,37.85
2022-11-15T05:45:58.629Z,38.12
2022-11-15T05:46:29.896Z,38.22
2022-11-15T05:47:01.230Z,38.32
2022-11-15T05:47:32.492Z,37.91
2022-11-15T05:48:05.538Z,38.16
2022-11-15T05:48:37.002Z,38.14
2022-11-15T05:49:08.421Z,38.13
2022-11-15T05:49:39.741Z,37.89
2022-11-15T05:50:14.781Z,38.16
2022-11-15T05:50:46.336Z,38.15
2022-11-15T05:51:17.690Z,38.00
2022-11-15T05:51:49.029Z,38.32
2022-11-15T05:52:21.255Z,37.92
2022-11-15T05:52:52.532Z,38.35
2022-11-15T05:53:23.950Z,38.23
2022-11-15T05:53:55.789Z,38.04
2022-11-15T05:54:27.073Z,37.91
2022-11-15T05:54:58.783Z,38.11
2022-11-15T05:55:30.122Z,37.95
2022-11-15T05:56:01.425Z,38.47
2022-11-15T05:56:32.687Z,38.25
2022-11-15T05:57:04.773Z,38.45
2022-11-15T05:57:36.068Z,38.12
2022-11-15T05:58:07.363Z,37.97
2022-11-15T05:58:38.638Z,38.08
2022-11-15T05:59:10.024Z,38.15
2022-11-15T05:59:41.363Z,38.39
2022-11-15T06:00:12.996Z,38.49
2022-11-15T06:00:44.300Z,38.06
2022-11-15T06:01:15.996Z,38.48
2022-11-15T06:01:47.293Z,38.56
2022-11-15T06:02:18.699Z,38.59
2022-11-15T06:02:49.949Z,38.41
2022-11-15T06:03:21.227Z,38.16
2022-11-15T06:03:52.518Z,38.23
2022-11-15T06:04:23.843Z,38.39
2022-11-15T06:04:55.227Z,38.30
2022-11-15T06:05:26.540Z,38.31
2022-11-15T06:05:57.838Z,38.33
2022-11-15T06:06:29.378Z,38.20
2022-11-15T06:07:00.668Z,38.63
2022-11-15T06:07:32.066Z,38.48
2022-11-15T06:08:03.478Z,38.38
2022-11-15T06:08:34.741Z,38.33
2022-11-15T06:09:06.125Z,38.37
2022-11-15T06:09:37.441Z,38.25
2022-11-15T06:10:09.131Z,38.30
2022-11-15T06:10:40.437Z,38.08
2022-11-15T06:11:11.736Z,38.20
2022-11-15T06:11:43.032Z,38.48
2022-11-15T06:12:14.326Z,38.58
2022-11-15T06:12:45.653Z,38.34
2022-11-15T06:13:16.908Z,38.25
2022-11-15T06:13:48.208Z,38.25
2022-11-15T06:14:19.491Z,38.30
2022-11-15T06:14:50.775Z,38.42
2022-11-15T06:15:22.098Z,38.18
2022-11-15T06:15:56.051Z,38.41
2022-11-15T06:16:27.352Z,38.43
2022-11-15T06:16:58.651Z,38.41
2022-11-15T06:17:29.957Z,38.42
2022-11-15T06:18:01.459Z,38.01
2022-11-15T06:18:33.190Z,38.59
2022-11-15T06:19:04.455Z,38.41
2022-11-15T06:19:35.754Z,38.17
2022-11-15T06:20:07.238Z,38.30
2022-11-15T06:20:38.536Z,38.58
2022-11-15T06:21:09.873Z,38.57
2022-11-15T06:21:41.252Z,38.57
2022-11-15T06:22:12.560Z,38.27
2022-11-15T06:22:43.846Z,38.03
2022-11-15T06:23:15.145Z,38.09
2022-11-15T06:23:46.428Z,38.37
2022-11-15T06:24:17.764Z,38.68
2022-11-15T06:24:49.020Z,38.42
2022-11-15T06:25:20.316Z,38.46
2022-11-15T06:25:51.638Z,37.99
2022-11-15T06:26:22.925Z,37.91
2022-11-15T06:26:54.255Z,38.38
2022-11-15T06:27:25.543Z,38.26
2022-11-15T06:27:57.241Z,38.58
2022-11-15T06:28:31.871Z,38.65
2022-11-15T06:29:03.822Z,38.52
2022-11-15T06:29:35.127Z,38.32
2022-11-15T06:30:06.560Z,38.17
2022-11-15T06:30:37.860Z,38.37
2022-11-15T06:31:09.856Z,38.18
2022-11-15T06:31:41.173Z,38.23
2022-11-15T06:32:12.440Z,38.30
2022-11-15T06:32:43.726Z,38.45
2022-11-15T06:33:15.009Z,38.35
2022-11-15T06:33:47.160Z,38.49
2022-11-15T06:34:18.443Z,38.24
2022-11-15T06:34:49.732Z,38.18
2022-11-15T06:35:21.005Z,38.38
2022-11-15T06:35:52.273Z,38.44
2022-11-15T06:36:23.572Z,38.12
2022-11-15T06:36:54.831Z,38.48
2022-11-15T06:37:26.130Z,38.26
2022-11-15T06:37:57.443Z,38.45
2022-11-15T06:38:28.726Z,38.37
2022-11-15T06:38:59.993Z,38.47
2022-11-15T06:39:31.287Z,38.33
2022-11-15T06:40:02.602Z,38.36
2022-11-15T06:40:34.711Z,38.38
2022-11-15T06:41:07.199Z,38.65
2022-11-15T06:41:38.480Z,38.52
2022-11-15T06:42:09.801Z,38.53
2022-11-15T06:42:41.119Z,38.55
2022-11-15T06:43:12.418Z,38.45
2022-11-15T06:43:43.701Z,38.13
2022-11-15T06:44:14.984Z,38.60
2022-11-15T06:44:46.279Z,38.65
2022-11-15T06:45:17.562Z,38.17
2022-11-15T06:45:48.836Z,38.49
2022-11-15T06:46:20.135Z,38.37
2022-11-15T06:46:51.405Z,38.20
2022-11-15T06:47:22.688Z,38.36
2022-11-15T06:47:53.984Z,38.24
2022-11-15T06:48:25.223Z,38.40
2022-11-15T06:48:56.520Z,38.00
2022-11-15T06:49:27.799Z,38.41
2022-11-15T06:49:59.105Z,38.33
2022-11-15T06:50:30.404Z,38.54
2022-11-15T06:51:02.030Z,38.21
2022-11-15T06:51:33.298Z,38.47
2022-11-15T06:52:04.668Z,38.18
2022-11-15T06:52:35.984Z,38.11
2022-11-15T06:53:07.301Z,38.22
2022-11-15T06:53:38.591Z,38.07
2022-11-15T06:54:09.887Z,38.02
2022-11-15T06:54:41.165Z,38.02
2022-11-15T06:55:12.445Z,38.40
2022-11-15T06:55:43.761Z,38.46
2022-11-15T06:56:15.065Z,38.39
2022-11-15T06:56:46.399Z,38.52
2022-11-15T06:57:17.712Z,38.49
2022-11-15T06:57:52.045Z,38.32
2022-11-15T06:58:23.311Z,38.19
2022-11-15T06:58:54.604Z,38.44
2022-11-15T06:59:25.897Z,38.54
2022-11-15T06:59:57.209Z,38.54
2022-11-15T07:00:28.538Z,38.22
2022-11-15T07:01:03.611Z,38.16
2022-11-15T07:01:34.999Z,38.22
2022-11-15T07:02:06.322Z,38.29
2022-11-15T07:02:37.642Z,38.48
2022-11-15T07:03:08.997Z,38.30
2022-11-15T07:03:40.802Z,38.04
2022-11-15T07:04:12.112Z,38.20
2022-11-15T07:04:43.413Z,38.38
2022-11-15T07:05:14.780Z,38.39
2022-11-15T07:05:55.130Z,38.31
2022-11-15T07:06:26.403Z,38.42
2022-11-15T07:06:57.810Z,38.16
2022-11-15T07:07:29.267Z,38.44
2022-11-15T07:08:00.593Z,38.49
2022-11-15T07:08:31.901Z,38.38
2022-11-15T07:09:03.670Z,38.27
2022-11-15T07:09:34.984Z,37.98
2022-11-15T07:10:06.622Z,38.39
2022-11-15T07:10:37.905Z,38.31
2022-11-15T07:11:09.238Z,38.44
2022-11-15T07:11:40.523Z,38.34
2022-11-15T07:12:11.821Z,38.20
2022-11-15T07:12:43.134Z,38.13
2022-11-15T07:13:14.419Z,38.42
2022-11-15T07:13:45.728Z,38.48
2022-11-15T07:14:17.013Z,38.24
2022-11-15T07:14:48.259Z,38.40
2022-11-15T07:15:19.838Z,38.29
2022-11-15T07:15:51.136Z,38.46
2022-11-15T07:16:22.430Z,38.25
2022-11-15T07:16:53.720Z,37.83
2022-11-15T07:17:24.989Z,38.25
2022-11-15T07:17:56.270Z,37.94
2022-11-15T07:18:27.535Z,38.38
2022-11-15T07:18:58.815Z,38.06
2022-11-15T07:19:30.106Z,38.38
2022-11-15T07:20:01.384Z,38.20
2022-11-15T07:20:32.667Z,38.19
2022-11-15T07:21:04.369Z,38.03
2022-11-15T07:21:35.656Z,38.26
2022-11-15T07:22:06.945Z,38.23
2022-11-15T07:22:38.238Z,38.36
2022-11-15T07:23:09.480Z,38.06
2022-11-15T07:23:40.795Z,38.19
2022-11-15T07:24:12.054Z,37.93
2022-11-15T07:24:43.381Z,37.94
2022-11-15T07:25:14.921Z,38.38
2022-11-15T07:25:46.392Z,38.20
2022-11-15T07:26:17.760Z,38.01
2022-11-15T07:26:49.287Z,38.29
2022-11-15T07:27:20.704Z,37.79
2022-11-15T07:27:56.130Z,38.03
2022-11-15T07:28:27.725Z,38.24
2022-11-15T07:28:59.246Z,37.93
2022-11-15T07:29:30.685Z,38.24
2022-11-15T07:30:02.242Z,38.13
2022-11-15T07:30:33.693Z,37.90
2022-11-15T07:31:05.403Z,37.93